Terminal Aerodrome Forecast
Issued by NWS Greer, SC

Home | Current Version | Previous Version | Text Only | Print | Product List | Glossary On
Versions: 1 2 3 4 5 6 7 8 9 10 11 12 13 14 15 16 17
807
FTUS42 KGSP 291724
TAFGSP
TAF
KGSP 291724Z 2918/3018 26004KT P6SM SCT040
     FM291900 25009KT P6SM VCTS BKN060CB
     FM301000 25004KT P6SM SCT070
     FM301200 27004KT P6SM BKN250=

USA.gov is the U.S. government's official web portal to all federal, state and local government web resources and services.